Terminal Aerodrome Forecast
Issued by NWS Memphis, TN

Home | Current Version | Previous Version | Text Only | Print | Product List | Glossary On
Versions: 1 2 3 4 5 6 7 8 9 10 11 12 13 14 15 16 17 18 19 20 21 22 23 24 25 26 27 28 29 30
000
FTUS44 KMEG 181732
TAFMKL
TAF
KMKL 181732Z 1818/1918 20005KT P6SM VCSH SCT015 BKN025
     FM182000 23004KT P6SM VCTS SCT025CB BKN060
     FM190000 21003KT P6SM VCSH SCT030 BKN100
     FM190600 VRB03KT P6SM SCT020 BKN080
      TEMPO 1909/1913 4SM BR BKN020
     FM191400 21008KT P6SM VCSH SCT030 BKN100=

USA.gov is the U.S. government's official web portal to all federal, state and local government web resources and services.